createdAt,value
2023-04-16T00:00:54.034Z,9.457222
2023-04-16T00:01:54.071Z,9.457192
2023-04-16T00:02:54.103Z,9.457206
2023-04-16T00:03:54.194Z,9.457281
2023-04-16T00:04:55.820Z,9.457364
2023-04-16T00:05:53.934Z,9.457299
2023-04-16T00:06:53.915Z,9.457222
2023-04-16T00:07:53.909Z,9.457307
2023-04-16T00:08:53.897Z,9.457196
2023-04-16T00:09:53.907Z,9.457043
2023-04-16T00:10:53.886Z,9.457119
2023-04-16T00:11:53.871Z,9.457174
2023-04-16T00:12:53.858Z,9.457208
2023-04-16T00:13:53.861Z,9.457271
2023-04-16T00:14:53.872Z,9.457296
2023-04-16T00:15:53.829Z,9.457209
2023-04-16T00:16:53.909Z,9.457225
2023-04-16T00:17:53.826Z,9.457255
2023-04-16T00:18:53.798Z,9.457187
2023-04-16T00:19:53.836Z,9.457202
2023-04-16T00:20:53.780Z,9.457172
2023-04-16T00:21:53.779Z,9.457170
2023-04-16T00:22:53.764Z,9.457172
2023-04-16T00:23:53.760Z,9.457159
2023-04-16T00:24:53.846Z,9.457205
2023-04-16T00:25:53.845Z,9.457211
2023-04-16T00:26:53.727Z,9.457211
2023-04-16T00:27:53.713Z,9.457190
2023-04-16T00:28:53.703Z,9.457338
2023-04-16T00:29:53.829Z,9.457217
2023-04-16T00:30:53.709Z,9.457191
2023-04-16T00:31:53.677Z,9.457224
2023-04-16T00:32:53.665Z,9.457355
2023-04-16T00:33:53.672Z,9.457241
2023-04-16T00:34:53.750Z,9.457265
2023-04-16T00:35:53.632Z,9.457207
2023-04-16T00:36:53.629Z,9.457258
2023-04-16T00:37:53.629Z,9.457234
2023-04-16T00:38:53.596Z,9.457236
2023-04-16T00:39:53.633Z,9.457174
2023-04-16T00:40:53.584Z,9.457307
2023-04-16T00:41:53.601Z,9.457237
2023-04-16T00:42:53.569Z,9.457225
2023-04-16T00:43:53.558Z,9.457164
2023-04-16T00:44:53.571Z,9.457240
2023-04-16T00:45:53.552Z,9.457265
2023-04-16T00:46:53.532Z,9.457129
2023-04-16T00:47:53.547Z,9.457212
2023-04-16T00:48:53.510Z,9.457192
2023-04-16T00:49:53.519Z,9.457238
2023-04-16T00:50:53.487Z,9.457203
2023-04-16T00:51:53.478Z,9.457292
2023-04-16T00:52:53.503Z,9.457274
2023-04-16T00:53:53.469Z,9.457229
2023-04-16T00:54:53.471Z,9.457268
2023-04-16T00:55:53.471Z,9.457258
2023-04-16T00:56:53.440Z,9.457171
2023-04-16T00:57:53.444Z,9.457155
2023-04-16T00:58:53.401Z,9.457218
2023-04-16T00:59:53.404Z,9.457216
2023-04-16T01:00:53.380Z,9.457238
2023-04-16T01:01:53.424Z,9.457253
2023-04-16T01:02:53.478Z,9.457297
2023-04-16T01:03:53.491Z,9.457255
2023-04-16T01:04:53.365Z,9.457132
2023-04-16T01:05:53.334Z,9.457255
2023-04-16T01:06:53.333Z,9.457117
2023-04-16T01:07:53.334Z,9.457207
2023-04-16T01:08:53.308Z,9.457287
2023-04-16T01:09:53.323Z,9.457230
2023-04-16T01:10:53.293Z,9.457221
2023-04-16T01:11:53.283Z,9.457213
2023-04-16T01:12:53.283Z,9.457232
2023-04-16T01:13:53.263Z,9.457281
2023-04-16T01:14:53.259Z,9.457259
2023-04-16T01:15:53.290Z,9.457193
2023-04-16T01:16:53.249Z,9.457097
2023-04-16T01:17:53.268Z,9.457100
2023-04-16T01:18:53.216Z,9.457142
2023-04-16T01:19:53.229Z,9.457039
2023-04-16T01:20:53.191Z,9.457309
2023-04-16T01:21:53.180Z,9.457296
2023-04-16T01:22:53.165Z,9.457242
2023-04-16T01:23:53.160Z,9.457240
2023-04-16T01:24:53.203Z,9.457367
2023-04-16T01:25:53.131Z,9.457486
2023-04-16T01:26:53.123Z,9.457284
2023-04-16T01:27:53.114Z,9.457220
2023-04-16T01:28:53.109Z,9.457255
2023-04-16T01:29:53.147Z,9.457261
2023-04-16T01:30:53.080Z,9.457235
2023-04-16T01:31:53.142Z,9.457308
2023-04-16T01:32:53.174Z,9.457315
2023-04-16T01:33:53.056Z,9.457240
2023-04-16T01:34:53.075Z,9.457322
2023-04-16T01:35:53.043Z,9.457298
2023-04-16T01:36:53.040Z,9.457297
2023-04-16T01:37:53.021Z,9.457355
2023-04-16T01:38:56.276Z,9.457347
2023-04-16T01:40:26.556Z,9.457309
2023-04-16T01:40:52.989Z,9.457311
2023-04-16T01:41:52.982Z,9.457277
2023-04-16T01:42:52.968Z,9.457172
2023-04-16T01:43:52.963Z,9.457193
2023-04-16T01:44:53.000Z,9.457206
2023-04-16T01:45:52.943Z,9.457261
2023-04-16T01:46:52.965Z,9.457309
2023-04-16T01:47:52.970Z,9.457252
2023-04-16T01:48:52.911Z,9.457233
2023-04-16T01:49:52.959Z,9.457227
2023-04-16T01:50:52.899Z,9.457201
2023-04-16T01:51:52.919Z,9.457247
2023-04-16T01:52:52.876Z,9.457216
2023-04-16T01:53:52.864Z,9.457229
2023-04-16T01:54:52.896Z,9.457224
2023-04-16T01:55:52.870Z,9.457244
2023-04-16T01:56:52.840Z,9.457199
2023-04-16T01:57:52.827Z,9.457250
2023-04-16T01:58:52.846Z,9.457195
2023-04-16T01:59:52.847Z,9.457276
2023-04-16T02:00:52.939Z,9.457284
2023-04-16T02:01:52.939Z,9.457208
2023-04-16T02:02:52.954Z,9.457267
2023-04-16T02:03:52.950Z,9.457131
2023-04-16T02:04:52.790Z,9.457290
2023-04-16T02:05:52.746Z,9.457280
2023-04-16T02:06:52.740Z,9.457170
2023-04-16T02:07:52.736Z,9.457329
2023-04-16T02:08:52.702Z,9.457269
2023-04-16T02:09:52.731Z,9.457234
2023-04-16T02:10:52.714Z,9.457293
2023-04-16T02:11:52.700Z,9.457352
2023-04-16T02:12:52.674Z,9.457436
2023-04-16T02:13:52.689Z,9.457233
2023-04-16T02:14:52.658Z,9.457123
2023-04-16T02:15:52.702Z,9.457177
2023-04-16T02:16:52.664Z,9.457118
2023-04-16T02:17:52.692Z,9.457142
2023-04-16T02:18:52.620Z,9.457184
2023-04-16T02:19:52.625Z,9.457099
2023-04-16T02:20:52.598Z,9.457173
2023-04-16T02:21:52.586Z,9.457237
2023-04-16T02:22:52.583Z,9.457433
2023-04-16T02:23:52.592Z,9.457276
2023-04-16T02:24:52.568Z,9.457445
2023-04-16T02:25:52.540Z,9.457257
2023-04-16T02:26:52.547Z,9.457327
2023-04-16T02:27:52.530Z,9.457292
2023-04-16T02:28:52.511Z,9.457355
2023-04-16T02:29:52.509Z,9.457091
2023-04-16T02:30:52.496Z,9.457280
2023-04-16T02:31:52.497Z,9.457271
2023-04-16T02:32:52.521Z,9.457265
2023-04-16T02:33:52.471Z,9.457453
2023-04-16T02:34:52.474Z,9.457328
2023-04-16T02:35:52.444Z,9.457278
2023-04-16T02:36:52.434Z,9.457226
2023-04-16T02:37:52.417Z,9.457142
2023-04-16T02:38:52.441Z,9.457079
2023-04-16T02:39:52.443Z,9.457194
2023-04-16T02:40:52.402Z,9.457268
2023-04-16T02:41:52.411Z,9.457188
2023-04-16T02:42:52.378Z,9.457186
2023-04-16T02:43:52.370Z,9.457216
2023-04-16T02:44:52.405Z,9.457060
2023-04-16T02:45:52.361Z,9.457159
2023-04-16T02:46:52.332Z,9.457177
2023-04-16T02:47:52.362Z,9.457149
2023-04-16T02:48:52.319Z,9.457281
2023-04-16T02:49:52.325Z,9.457674
2023-04-16T02:50:52.312Z,9.457380
2023-04-16T02:51:52.304Z,9.457288
2023-04-16T02:52:52.282Z,9.457317
2023-04-16T02:53:52.271Z,9.457319
2023-04-16T02:54:52.259Z,9.457402
2023-04-16T02:55:52.292Z,9.457484
2023-04-16T02:56:52.245Z,9.457312
2023-04-16T02:57:52.241Z,9.457340
2023-04-16T02:58:52.225Z,9.457361
2023-04-16T02:59:52.230Z,9.457297
2023-04-16T03:00:52.212Z,9.457230
2023-04-16T03:01:52.318Z,9.457229
2023-04-16T03:02:52.197Z,9.457241
2023-04-16T03:03:52.200Z,9.457275
2023-04-16T03:04:52.181Z,9.457345
2023-04-16T03:05:53.017Z,9.457356
2023-04-16T03:06:52.142Z,9.457277
2023-04-16T03:07:52.124Z,9.457214
2023-04-16T03:08:52.119Z,9.457384
2023-04-16T03:09:52.130Z,9.457384
2023-04-16T03:10:52.104Z,9.457317
2023-04-16T03:11:52.094Z,9.457609
2023-04-16T03:12:52.082Z,9.457560
2023-04-16T03:13:52.072Z,9.457447
2023-04-16T03:14:52.083Z,9.457372
2023-04-16T03:15:52.114Z,9.457384
2023-04-16T03:16:52.046Z,9.457298
2023-04-16T03:17:52.073Z,9.457313
2023-04-16T03:18:52.026Z,9.457535
2023-04-16T03:19:52.037Z,9.457498
2023-04-16T03:20:52.001Z,9.457432
2023-04-16T03:21:52.001Z,9.457447
2023-04-16T03:22:51.985Z,9.457477
2023-04-16T03:23:51.984Z,9.457494
2023-04-16T03:24:51.997Z,9.457441
2023-04-16T03:25:51.969Z,9.457237
2023-04-16T03:26:51.960Z,9.457393
2023-04-16T03:27:51.943Z,9.457313
2023-04-16T03:28:51.935Z,9.457355
2023-04-16T03:29:51.954Z,9.457441
2023-04-16T03:30:52.010Z,9.457479
2023-04-16T03:31:51.916Z,9.457523
2023-04-16T03:32:51.963Z,9.457460
2023-04-16T03:33:51.892Z,9.457599
2023-04-16T03:34:51.900Z,9.457544
2023-04-16T03:35:51.855Z,9.457545
2023-04-16T03:36:51.854Z,9.457466
2023-04-16T03:37:51.847Z,9.457579
2023-04-16T03:38:51.837Z,9.457569
2023-04-16T03:39:51.848Z,9.457518
2023-04-16T03:40:51.821Z,9.457571
2023-04-16T03:41:51.809Z,9.457341
2023-04-16T03:42:51.802Z,9.457333
2023-04-16T03:43:51.786Z,9.457478
2023-04-16T03:44:51.803Z,9.457592
2023-04-16T03:45:51.786Z,9.457062
2023-04-16T03:46:51.821Z,9.457195
2023-04-16T03:47:51.775Z,9.457322
2023-04-16T03:48:51.735Z,9.457441
2023-04-16T03:49:51.770Z,9.457544
2023-04-16T03:50:51.713Z,9.457569
2023-04-16T03:51:51.704Z,9.457407
2023-04-16T03:52:51.698Z,9.457433
2023-04-16T03:53:51.682Z,9.457449
2023-04-16T03:54:51.700Z,9.457257
2023-04-16T03:55:51.675Z,9.457258
2023-04-16T03:56:51.654Z,9.457041
2023-04-16T03:57:51.648Z,9.457237
2023-04-16T03:58:51.643Z,9.457397
2023-04-16T03:59:51.648Z,9.457610
2023-04-16T04:00:51.609Z,9.457546
2023-04-16T04:01:51.675Z,9.457377
2023-04-16T04:02:51.691Z,9.457370
2023-04-16T04:03:51.882Z,9.457335
2023-04-16T04:04:51.609Z,9.457436
2023-04-16T04:05:51.564Z,9.457288
2023-04-16T04:06:51.567Z,9.457141
2023-04-16T04:07:51.545Z,9.457313
2023-04-16T04:08:51.559Z,9.457495
2023-04-16T04:09:51.560Z,9.457436
2023-04-16T04:10:51.517Z,9.457508
2023-04-16T04:11:51.519Z,9.457410
2023-04-16T04:12:51.498Z,9.457388
2023-04-16T04:13:51.491Z,9.457306
2023-04-16T04:14:51.515Z,9.457264
2023-04-16T04:15:51.575Z,9.457265
2023-04-16T04:16:51.456Z,9.457265
2023-04-16T04:17:51.471Z,9.457219
2023-04-16T04:18:51.437Z,9.457288
2023-04-16T04:20:00.844Z,9.457258
2023-04-16T04:20:53.420Z,9.457325
2023-04-16T04:21:51.406Z,9.457274
2023-04-16T04:22:51.407Z,9.457245
2023-04-16T04:23:51.386Z,9.457261
2023-04-16T04:24:52.404Z,9.457236
2023-04-16T04:25:51.433Z,9.457248
2023-04-16T04:26:51.364Z,9.457324
2023-04-16T04:27:51.377Z,9.457436
2023-04-16T04:28:51.348Z,9.457323
2023-04-16T04:29:51.345Z,9.457449
2023-04-16T04:30:51.320Z,9.457292
2023-04-16T04:31:51.326Z,9.457170
2023-04-16T04:32:51.432Z,9.457286
2023-04-16T04:33:51.292Z,9.457253
2023-04-16T04:34:51.299Z,9.457283
2023-04-16T04:35:51.275Z,9.457318
2023-04-16T04:36:51.270Z,9.457332
2023-04-16T04:37:51.239Z,9.457277
2023-04-16T04:38:51.246Z,9.457273
2023-04-16T04:39:51.254Z,9.457323
2023-04-16T04:40:51.222Z,9.457352
2023-04-16T04:41:51.234Z,9.457273
2023-04-16T04:42:51.189Z,9.457303
2023-04-16T04:43:51.190Z,9.457311
2023-04-16T04:44:51.228Z,9.457309
2023-04-16T04:45:51.224Z,9.457230
2023-04-16T04:46:51.157Z,9.457261
2023-04-16T04:47:51.145Z,9.457228
2023-04-16T04:48:52.190Z,9.457355
2023-04-16T04:49:51.128Z,9.457272
2023-04-16T04:50:51.141Z,9.457254
2023-04-16T04:51:51.112Z,9.457294
2023-04-16T04:52:51.102Z,9.457312
2023-04-16T04:53:51.078Z,9.457309
2023-04-16T04:54:51.073Z,9.457330
2023-04-16T04:55:54.062Z,9.457269
2023-04-16T04:56:53.070Z,9.457262
2023-04-16T04:57:51.044Z,9.457307
2023-04-16T04:58:51.036Z,9.457274
2023-04-16T04:59:51.022Z,9.457356
2023-04-16T05:00:51.094Z,9.457278
2023-04-16T05:01:51.011Z,9.457256
2023-04-16T05:02:51.088Z,9.457299
2023-04-16T05:03:51.091Z,9.457290
2023-04-16T05:04:50.991Z,9.457336
2023-04-16T05:05:50.995Z,9.457306
2023-04-16T05:06:50.956Z,9.457315
2023-04-16T05:07:50.945Z,9.457298
2023-04-16T05:08:50.938Z,9.457186
2023-04-16T05:09:50.920Z,9.457194
2023-04-16T05:10:50.925Z,9.457195
2023-04-16T05:11:50.897Z,9.457252
2023-04-16T05:12:51.893Z,9.457221
2023-04-16T05:13:50.893Z,9.457242
2023-04-16T05:14:50.881Z,9.457208
2023-04-16T05:15:50.885Z,9.457232
2023-04-16T05:16:50.937Z,9.457268
2023-04-16T05:17:50.885Z,9.457303
2023-04-16T05:18:50.841Z,9.457257
2023-04-16T05:19:50.825Z,9.457271
2023-04-16T05:20:50.840Z,9.457262
2023-04-16T05:21:50.806Z,9.457334
2023-04-16T05:22:50.797Z,9.457310
2023-04-16T05:23:50.789Z,9.457224
2023-04-16T05:24:50.778Z,9.457296
2023-04-16T05:25:50.780Z,9.457181
2023-04-16T05:26:50.761Z,9.457184
2023-04-16T05:27:50.786Z,9.457242
2023-04-16T05:28:50.747Z,9.457302
2023-04-16T05:29:50.720Z,9.457307
2023-04-16T05:30:50.744Z,9.457104
2023-04-16T05:31:50.706Z,9.457120
2023-04-16T05:32:50.720Z,9.457179
2023-04-16T05:33:50.679Z,9.457284
2023-04-16T05:34:50.678Z,9.457252
2023-04-16T05:35:50.681Z,9.457278
2023-04-16T05:36:50.665Z,9.457214
2023-04-16T05:37:50.670Z,9.457172
2023-04-16T05:38:50.636Z,9.457168
2023-04-16T05:39:50.627Z,9.457242
2023-04-16T05:40:50.640Z,9.457274
2023-04-16T05:41:50.611Z,9.457245
2023-04-16T05:42:50.591Z,9.457251
2023-04-16T05:43:50.579Z,9.457215
2023-04-16T05:44:50.578Z,9.457353
2023-04-16T05:45:50.606Z,9.457153
2023-04-16T05:46:50.554Z,9.457279
2023-04-16T05:47:50.657Z,9.457597
2023-04-16T05:48:50.542Z,9.457469
2023-04-16T05:49:50.552Z,9.457484
2023-04-16T05:50:50.532Z,9.457284
2023-04-16T05:51:51.066Z,9.457221
2023-04-16T05:52:51.505Z,9.457075
2023-04-16T05:53:50.487Z,9.457191
2023-04-16T05:54:50.491Z,9.457323
2023-04-16T05:55:50.483Z,9.457284
2023-04-16T05:56:50.478Z,9.457262
2023-04-16T05:57:50.459Z,9.457199
2023-04-16T05:58:50.436Z,9.457246
2023-04-16T05:59:50.435Z,9.457286
2023-04-16T06:00:50.450Z,9.457332
2023-04-16T06:01:50.443Z,9.457234
2023-04-16T06:02:50.499Z,9.457253
2023-04-16T06:03:50.500Z,9.457376
2023-04-16T06:04:50.413Z,9.457367
2023-04-16T06:05:50.431Z,9.457480
2023-04-16T06:06:50.373Z,9.457338
2023-04-16T06:07:50.347Z,9.457237
2023-04-16T06:08:51.440Z,9.457276
2023-04-16T06:09:50.338Z,9.457233
2023-04-16T06:10:50.340Z,9.457237
2023-04-16T06:11:50.307Z,9.457128
2023-04-16T06:12:50.302Z,9.457257
2023-04-16T06:13:50.290Z,9.457400
2023-04-16T06:14:50.274Z,9.457358
2023-04-16T06:15:50.321Z,9.457230
2023-04-16T06:16:51.259Z,9.457139
2023-04-16T06:17:50.301Z,9.457358
2023-04-16T06:18:50.241Z,9.457283
2023-04-16T06:19:50.227Z,9.457365
2023-04-16T06:20:50.244Z,9.457211
2023-04-16T06:21:50.208Z,9.457257
2023-04-16T06:22:50.202Z,9.457256
2023-04-16T06:23:50.203Z,9.457402
2023-04-16T06:24:50.177Z,9.457309
2023-04-16T06:25:50.192Z,9.457400
2023-04-16T06:26:50.179Z,9.457410
2023-04-16T06:27:50.151Z,9.457262
2023-04-16T06:28:50.152Z,9.457020
2023-04-16T06:29:50.128Z,9.456956
2023-04-16T06:30:50.148Z,9.456706
2023-04-16T06:31:50.165Z,9.456762
2023-04-16T06:32:50.123Z,9.456556
2023-04-16T06:33:50.097Z,9.457252
2023-04-16T06:34:50.080Z,9.457324
2023-04-16T06:35:50.089Z,9.457421
2023-04-16T06:36:50.064Z,9.457251
2023-04-16T06:37:50.053Z,9.457388
2023-04-16T06:38:50.040Z,9.457397
2023-04-16T06:39:50.029Z,9.457555
2023-04-16T06:40:50.032Z,9.457322
2023-04-16T06:41:50.014Z,9.457283
2023-04-16T06:42:50.014Z,9.457314
2023-04-16T06:43:49.996Z,9.457341
2023-04-16T06:44:49.984Z,9.457573
2023-04-16T06:45:49.985Z,9.457423
2023-04-16T06:46:50.012Z,9.457558
2023-04-16T06:47:50.003Z,9.457525
2023-04-16T06:48:49.936Z,9.457355
2023-04-16T06:49:49.950Z,9.457422
2023-04-16T06:50:49.941Z,9.457207
2023-04-16T06:51:49.914Z,9.457094
2023-04-16T06:52:49.908Z,9.457042
2023-04-16T06:53:49.908Z,9.456965
2023-04-16T06:54:49.886Z,9.456998
2023-04-16T06:55:49.890Z,9.457091
2023-04-16T06:56:49.863Z,9.457044
2023-04-16T06:57:49.862Z,9.457126
2023-04-16T06:58:49.857Z,9.457113
2023-04-16T06:59:49.848Z,9.457091
2023-04-16T07:00:49.876Z,9.457128
2023-04-16T07:01:49.896Z,9.457145
2023-04-16T07:02:49.923Z,9.457279
2023-04-16T07:03:50.078Z,9.457237
2023-04-16T07:04:49.796Z,9.457243
2023-04-16T07:05:49.809Z,9.457173
2023-04-16T07:06:49.772Z,9.457385
2023-04-16T07:07:49.764Z,9.457238
2023-04-16T07:08:49.744Z,9.457412
2023-04-16T07:09:49.741Z,9.457482
2023-04-16T07:10:49.745Z,9.457415
2023-04-16T07:11:49.723Z,9.457233
2023-04-16T07:12:49.714Z,9.457345
2023-04-16T07:13:49.696Z,9.457241
2023-04-16T07:14:49.694Z,9.457382
2023-04-16T07:15:49.698Z,9.457381
2023-04-16T07:16:49.765Z,9.457263
2023-04-16T07:17:49.733Z,9.457258
2023-04-16T07:18:49.650Z,9.457240
2023-04-16T07:19:49.633Z,9.457292
2023-04-16T07:20:49.652Z,9.457302
2023-04-16T07:21:49.614Z,9.457192
2023-04-16T07:22:49.622Z,9.457196
2023-04-16T07:23:49.602Z,9.457234
2023-04-16T07:24:49.593Z,9.457238
2023-04-16T07:25:49.601Z,9.457249
2023-04-16T07:26:49.592Z,9.457242
2023-04-16T07:27:49.562Z,9.457210
2023-04-16T07:28:49.556Z,9.457199
2023-04-16T07:29:49.535Z,9.457184
2023-04-16T07:30:49.534Z,9.457144
2023-04-16T07:31:49.592Z,9.457240
2023-04-16T07:32:49.542Z,9.457219
2023-04-16T07:33:49.500Z,9.457225
2023-04-16T07:34:49.485Z,9.457242
2023-04-16T07:35:49.497Z,9.457366
2023-04-16T07:36:49.477Z,9.457191
2023-04-16T07:37:49.453Z,9.457251
2023-04-16T07:38:49.459Z,9.457282
2023-04-16T07:40:21.346Z,9.457213
2023-04-16T07:40:49.459Z,9.457154
2023-04-16T07:41:49.422Z,9.457253
2023-04-16T07:42:49.419Z,9.457302
2023-04-16T07:43:49.400Z,9.457335
2023-04-16T07:44:49.384Z,9.457309
2023-04-16T07:45:49.425Z,9.457239
2023-04-16T07:46:49.428Z,9.457223
2023-04-16T07:47:49.421Z,9.457303
2023-04-16T07:48:49.356Z,9.457281
2023-04-16T07:49:49.349Z,9.457274
2023-04-16T07:50:49.365Z,9.457273
2023-04-16T07:51:49.339Z,9.457157
2023-04-16T07:52:49.318Z,9.457171
2023-04-16T07:53:49.312Z,9.457180
2023-04-16T07:54:49.307Z,9.457240
2023-04-16T07:55:49.311Z,9.457239
2023-04-16T07:56:49.284Z,9.457218
2023-04-16T07:57:49.261Z,9.457248
2023-04-16T07:58:49.259Z,9.457208
2023-04-16T07:59:50.118Z,9.457209
2023-04-16T08:00:50.892Z,9.457182
2023-04-16T08:01:50.307Z,9.457144
2023-04-16T08:02:49.454Z,9.457213
2023-04-16T08:03:50.329Z,9.457231
2023-04-16T08:04:49.415Z,9.457296
2023-04-16T08:05:49.215Z,9.457172
2023-04-16T08:06:49.185Z,9.457145
2023-04-16T08:07:49.165Z,9.457036
2023-04-16T08:08:49.168Z,9.457163
2023-04-16T08:09:49.145Z,9.457157
2023-04-16T08:10:49.158Z,9.457168
2023-04-16T08:11:49.263Z,9.457152
2023-04-16T08:12:49.122Z,9.457144
2023-04-16T08:13:49.127Z,9.457138
2023-04-16T08:14:49.144Z,9.457052
2023-04-16T08:15:49.178Z,9.457060
2023-04-16T08:16:49.120Z,9.457156
2023-04-16T08:17:49.125Z,9.457108
2023-04-16T08:18:49.072Z,9.457094
2023-04-16T08:19:49.052Z,9.457077
2023-04-16T08:20:49.053Z,9.457087
2023-04-16T08:21:49.099Z,9.457124
2023-04-16T08:22:49.073Z,9.457066
2023-04-16T08:23:49.050Z,9.457115
2023-04-16T08:24:49.010Z,9.457018
2023-04-16T08:25:48.993Z,9.457026
2023-04-16T08:26:49.005Z,9.457101
2023-04-16T08:27:48.985Z,9.457062
2023-04-16T08:28:48.972Z,9.457122
2023-04-16T08:29:48.963Z,9.457116
2023-04-16T08:30:48.946Z,9.457262
2023-04-16T08:31:49.111Z,9.457098
2023-04-16T08:32:50.210Z,9.457150
2023-04-16T08:33:49.919Z,9.457333
2023-04-16T08:34:48.913Z,9.457169
2023-04-16T08:35:48.895Z,9.457153
2023-04-16T08:36:48.920Z,9.457119
2023-04-16T08:37:48.873Z,9.457067
2023-04-16T08:38:48.863Z,9.457158
2023-04-16T08:39:48.862Z,9.457091
2023-04-16T08:40:48.870Z,9.456994
2023-04-16T08:41:48.860Z,9.457104
2023-04-16T08:42:48.828Z,9.456905
2023-04-16T08:43:48.819Z,9.456943
2023-04-16T08:44:49.349Z,9.457088
2023-04-16T08:45:49.804Z,9.457099
2023-04-16T08:46:48.821Z,9.457183
2023-04-16T08:47:48.828Z,9.457185
2023-04-16T08:48:48.779Z,9.457204
2023-04-16T08:49:48.763Z,9.457211
2023-04-16T08:50:48.771Z,9.457074
2023-04-16T08:51:48.737Z,9.456913
2023-04-16T08:52:48.728Z,9.456622
2023-04-16T08:53:48.711Z,9.457203
2023-04-16T08:54:56.714Z,9.457150
2023-04-16T08:55:49.708Z,9.457211
2023-04-16T08:56:48.687Z,9.457199
2023-04-16T08:57:48.691Z,9.457170
2023-04-16T08:58:48.678Z,9.456949
2023-04-16T08:59:48.655Z,9.456897
2023-04-16T09:00:48.676Z,9.456884
2023-04-16T09:01:48.693Z,9.457032
2023-04-16T09:02:48.864Z,9.457259
2023-04-16T09:03:48.794Z,9.457422
2023-04-16T09:04:48.641Z,9.457818
2023-04-16T09:05:48.610Z,9.457731
2023-04-16T09:06:48.579Z,9.457515
2023-04-16T09:07:48.587Z,9.457535
2023-04-16T09:08:48.569Z,9.457534
2023-04-16T09:09:48.558Z,9.457266
2023-04-16T09:10:48.593Z,9.457315
2023-04-16T09:11:48.560Z,9.457402
2023-04-16T09:12:48.518Z,9.457329
2023-04-16T09:13:48.519Z,9.457243
2023-04-16T09:14:48.498Z,9.457302
2023-04-16T09:15:48.513Z,9.457318
2023-04-16T09:16:48.482Z,9.457401
2023-04-16T09:17:48.515Z,9.457237
2023-04-16T09:18:48.463Z,9.457073
2023-04-16T09:19:48.464Z,9.457253
2023-04-16T09:20:48.465Z,9.457190
2023-04-16T09:21:48.450Z,9.457351
2023-04-16T09:22:48.427Z,9.457362
2023-04-16T09:23:48.416Z,9.457274
2023-04-16T09:24:48.409Z,9.457193
2023-04-16T09:25:48.417Z,9.457313
2023-04-16T09:26:48.385Z,9.457207
2023-04-16T09:27:48.383Z,9.457299
2023-04-16T09:28:48.369Z,9.457285
2023-04-16T09:29:48.366Z,9.457208
2023-04-16T09:30:48.341Z,9.457202
2023-04-16T09:31:48.422Z,9.457174
2023-04-16T09:32:48.361Z,9.457310
2023-04-16T09:33:48.321Z,9.457316
2023-04-16T09:34:48.312Z,9.457261
2023-04-16T09:35:48.309Z,9.457127
2023-04-16T09:36:48.352Z,9.457281
2023-04-16T09:37:48.281Z,9.457215
2023-04-16T09:38:48.270Z,9.457306
2023-04-16T09:39:48.279Z,9.457202
2023-04-16T09:40:48.258Z,9.457239
2023-04-16T09:41:48.327Z,9.457275
2023-04-16T09:42:48.225Z,9.457223
2023-04-16T09:43:48.221Z,9.457148
2023-04-16T09:44:48.219Z,9.457114
2023-04-16T09:45:48.278Z,9.457244
2023-04-16T09:46:48.216Z,9.457236
2023-04-16T09:47:48.195Z,9.457205
2023-04-16T09:48:48.178Z,9.457181
2023-04-16T09:49:48.171Z,9.457103
2023-04-16T09:50:48.156Z,9.457164
2023-04-16T09:51:48.172Z,9.457239
2023-04-16T09:52:48.140Z,9.457259
2023-04-16T09:53:48.132Z,9.457271
2023-04-16T09:54:48.126Z,9.457215
2023-04-16T09:55:48.111Z,9.457131
2023-04-16T09:56:48.120Z,9.457117
2023-04-16T09:57:48.093Z,9.457113
2023-04-16T09:58:48.089Z,9.457155
2023-04-16T09:59:48.073Z,9.457138
2023-04-16T10:00:48.061Z,9.457177
2023-04-16T10:01:48.153Z,9.457102
2023-04-16T10:02:49.287Z,9.457125
2023-04-16T10:03:48.123Z,9.457103
2023-04-16T10:04:48.118Z,9.457068
2023-04-16T10:05:48.016Z,9.457137
2023-04-16T10:06:48.054Z,9.457148
2023-04-16T10:07:48.010Z,9.457101
2023-04-16T10:08:49.659Z,9.457026
2023-04-16T10:09:49.024Z,9.457068
2023-04-16T10:10:47.969Z,9.457092
2023-04-16T10:11:48.012Z,9.457166
2023-04-16T10:12:47.946Z,9.457261
2023-04-16T10:13:47.943Z,9.457231
2023-04-16T10:14:50.018Z,9.457259
2023-04-16T10:15:47.975Z,9.457251
2023-04-16T10:16:48.012Z,9.457257
2023-04-16T10:17:47.938Z,9.457277
2023-04-16T10:18:47.894Z,9.457219
2023-04-16T10:19:47.905Z,9.457233
2023-04-16T10:20:47.897Z,9.457247
2023-04-16T10:21:47.912Z,9.457254
2023-04-16T10:22:47.859Z,9.457290
2023-04-16T10:23:47.846Z,9.457236
2023-04-16T10:24:47.827Z,9.457211
2023-04-16T10:25:47.825Z,9.457247
2023-04-16T10:26:47.841Z,9.457289
2023-04-16T10:27:47.798Z,9.457252
2023-04-16T10:28:47.790Z,9.457244
2023-04-16T10:29:47.788Z,9.457208
2023-04-16T10:30:47.822Z,9.457195
2023-04-16T10:31:47.785Z,9.457205
2023-04-16T10:32:47.760Z,9.457245
2023-04-16T10:33:47.732Z,9.457248
2023-04-16T10:34:47.724Z,9.457219
2023-04-16T10:35:54.975Z,9.457180
2023-04-16T10:36:49.740Z,9.457115
2023-04-16T10:37:47.700Z,9.457164
2023-04-16T10:38:47.749Z,9.457185
2023-04-16T10:39:47.676Z,9.457184
2023-04-16T10:40:47.659Z,9.457183
2023-04-16T10:41:47.666Z,9.457144
2023-04-16T10:42:47.643Z,9.457117
2023-04-16T10:43:47.634Z,9.457041
2023-04-16T10:44:47.629Z,9.457064
2023-04-16T10:45:47.645Z,9.457211
2023-04-16T10:46:47.634Z,9.457211
2023-04-16T10:47:47.641Z,9.457244
2023-04-16T10:48:50.152Z,9.457278
2023-04-16T10:49:48.568Z,9.457304
2023-04-16T10:50:47.561Z,9.457167
2023-04-16T10:51:47.597Z,9.457098
2023-04-16T10:52:47.544Z,9.457232
2023-04-16T10:53:47.525Z,9.457260
2023-04-16T10:54:47.522Z,9.457417
2023-04-16T10:55:47.513Z,9.457179
2023-04-16T10:56:47.533Z,9.457159
2023-04-16T10:57:47.488Z,9.457136
2023-04-16T10:58:47.481Z,9.457320
2023-04-16T10:59:47.460Z,9.457194
2023-04-16T11:00:47.462Z,9.457226
2023-04-16T11:01:48.687Z,9.457264
2023-04-16T11:02:47.613Z,9.457225
2023-04-16T11:03:47.719Z,9.457253
2023-04-16T11:04:47.560Z,9.457275
2023-04-16T11:05:47.410Z,9.457367
2023-04-16T11:06:47.419Z,9.457284
2023-04-16T11:07:48.923Z,9.457303
2023-04-16T11:08:54.664Z,9.457371
2023-04-16T11:09:49.384Z,9.457296
2023-04-16T11:10:47.361Z,9.457249
2023-04-16T11:11:47.375Z,9.457291
2023-04-16T11:12:47.438Z,9.457293
2023-04-16T11:13:47.348Z,9.457414
2023-04-16T11:14:47.368Z,9.457232
2023-04-16T11:15:47.373Z,9.457209
2023-04-16T11:16:47.322Z,9.457322
2023-04-16T11:17:47.336Z,9.457254
2023-04-16T11:18:51.506Z,9.457213
2023-04-16T11:19:47.301Z,9.457273
2023-04-16T11:20:47.261Z,9.457296
2023-04-16T11:21:47.286Z,9.457250
2023-04-16T11:22:47.263Z,9.457192
2023-04-16T11:23:47.231Z,9.457202
2023-04-16T11:24:47.232Z,9.457181
2023-04-16T11:25:47.221Z,9.457177
2023-04-16T11:26:47.238Z,9.457226
2023-04-16T11:27:47.197Z,9.457419
2023-04-16T11:28:47.182Z,9.457334
2023-04-16T11:29:47.664Z,9.457225
2023-04-16T11:30:47.171Z,9.457166
2023-04-16T11:31:47.268Z,9.457096
2023-04-16T11:32:47.189Z,9.457319
2023-04-16T11:33:47.135Z,9.457310
2023-04-16T11:34:47.122Z,9.457501
2023-04-16T11:35:47.116Z,9.457525
2023-04-16T11:36:47.121Z,9.457596
2023-04-16T11:37:47.100Z,9.457473
2023-04-16T11:38:47.089Z,9.457311
2023-04-16T11:39:47.095Z,9.457227
2023-04-16T11:40:47.084Z,9.457180
2023-04-16T11:41:47.095Z,9.457191
2023-04-16T11:42:47.046Z,9.457235
2023-04-16T11:43:47.049Z,9.457206
2023-04-16T11:44:47.035Z,9.457175